sensor_id;sensor_type;location;lat;lon;timestamp;P1;durP1;ratioP1;P2;durP2;ratioP2
23123;SDS011;11731;48.592;8.858;2023-06-22T00:02:03;10.43;;;9.33;;
23123;SDS011;11731;48.592;8.858;2023-06-22T00:04:30;18.93;;;10.07;;
23123;SDS011;11731;48.592;8.858;2023-06-22T00:06:57;11.50;;;9.93;;
23123;SDS011;11731;48.592;8.858;2023-06-22T00:09:24;13.33;;;10.07;;
23123;SDS011;11731;48.592;8.858;2023-06-22T00:11:51;12.30;;;10.20;;
23123;SDS011;11731;48.592;8.858;2023-06-22T00:14:18;12.07;;;9.70;;
23123;SDS011;11731;48.592;8.858;2023-06-22T00:16:48;11.30;;;9.70;;
23123;SDS011;11731;48.592;8.858;2023-06-22T00:19:19;11.90;;;9.47;;
23123;SDS011;11731;48.592;8.858;2023-06-22T00:21:46;10.77;;;9.67;;
23123;SDS011;11731;48.592;8.858;2023-06-22T00:24:17;13.00;;;10.23;;
23123;SDS011;11731;48.592;8.858;2023-06-22T00:26:44;11.43;;;9.63;;
23123;SDS011;11731;48.592;8.858;2023-06-22T00:29:11;10.87;;;9.77;;
23123;SDS011;11731;48.592;8.858;2023-06-22T00:31:38;14.07;;;9.40;;
23123;SDS011;11731;48.592;8.858;2023-06-22T00:34:06;15.07;;;10.07;;
23123;SDS011;11731;48.592;8.858;2023-06-22T00:36:34;13.53;;;9.80;;
23123;SDS011;11731;48.592;8.858;2023-06-22T00:39:01;11.50;;;9.90;;
23123;SDS011;11731;48.592;8.858;2023-06-22T00:41:28;14.87;;;10.00;;
23123;SDS011;11731;48.592;8.858;2023-06-22T00:43:55;16.37;;;12.07;;
23123;SDS011;11731;48.592;8.858;2023-06-22T00:46:22;14.53;;;11.27;;
23123;SDS011;11731;48.592;8.858;2023-06-22T00:48:50;17.67;;;10.77;;
23123;SDS011;11731;48.592;8.858;2023-06-22T00:51:23;14.10;;;10.60;;
23123;SDS011;11731;48.592;8.858;2023-06-22T00:53:51;12.03;;;10.43;;
23123;SDS011;11731;48.592;8.858;2023-06-22T00:56:18;12.40;;;11.10;;
23123;SDS011;11731;48.592;8.858;2023-06-22T00:58:49;12.47;;;11.00;;
23123;SDS011;11731;48.592;8.858;2023-06-22T01:01:18;12.63;;;10.33;;
23123;SDS011;11731;48.592;8.858;2023-06-22T01:03:48;13.63;;;11.03;;
23123;SDS011;11731;48.592;8.858;2023-06-22T01:06:18;14.57;;;10.57;;
23123;SDS011;11731;48.592;8.858;2023-06-22T01:08:57;13.87;;;10.10;;
23123;SDS011;11731;48.592;8.858;2023-06-22T01:11:35;12.93;;;11.13;;
23123;SDS011;11731;48.592;8.858;2023-06-22T01:14:09;13.97;;;11.30;;
23123;SDS011;11731;48.592;8.858;2023-06-22T01:16:41;12.00;;;9.83;;
23123;SDS011;11731;48.592;8.858;2023-06-22T01:19:15;14.47;;;10.30;;
23123;SDS011;11731;48.592;8.858;2023-06-22T01:21:53;11.77;;;10.57;;
23123;SDS011;11731;48.592;8.858;2023-06-22T01:24:24;14.53;;;9.93;;
23123;SDS011;11731;48.592;8.858;2023-06-22T01:26:59;16.03;;;10.30;;
23123;SDS011;11731;48.592;8.858;2023-06-22T01:29:33;12.43;;;10.40;;
23123;SDS011;11731;48.592;8.858;2023-06-22T01:32:04;12.50;;;10.30;;
23123;SDS011;11731;48.592;8.858;2023-06-22T01:34:32;16.80;;;11.10;;
23123;SDS011;11731;48.592;8.858;2023-06-22T01:37:00;17.07;;;11.47;;
23123;SDS011;11731;48.592;8.858;2023-06-22T01:39:28;14.57;;;10.77;;
23123;SDS011;11731;48.592;8.858;2023-06-22T01:41:56;12.17;;;10.47;;
23123;SDS011;11731;48.592;8.858;2023-06-22T01:44:24;13.60;;;11.17;;
23123;SDS011;11731;48.592;8.858;2023-06-22T01:46:53;13.03;;;10.93;;
23123;SDS011;11731;48.592;8.858;2023-06-22T01:49:21;14.47;;;10.57;;
23123;SDS011;11731;48.592;8.858;2023-06-22T01:51:48;16.13;;;11.53;;
23123;SDS011;11731;48.592;8.858;2023-06-22T01:54:15;12.27;;;9.53;;
23123;SDS011;11731;48.592;8.858;2023-06-22T01:56:42;17.63;;;10.50;;
23123;SDS011;11731;48.592;8.858;2023-06-22T01:59:11;14.23;;;11.03;;
23123;SDS011;11731;48.592;8.858;2023-06-22T02:01:42;14.40;;;11.00;;
23123;SDS011;11731;48.592;8.858;2023-06-22T02:04:19;12.23;;;10.93;;
23123;SDS011;11731;48.592;8.858;2023-06-22T02:06:51;14.17;;;10.30;;
23123;SDS011;11731;48.592;8.858;2023-06-22T02:09:22;17.40;;;12.10;;
23123;SDS011;11731;48.592;8.858;2023-06-22T02:11:50;16.50;;;11.50;;
23123;SDS011;11731;48.592;8.858;2023-06-22T02:14:20;13.63;;;11.83;;
23123;SDS011;11731;48.592;8.858;2023-06-22T02:16:49;14.13;;;10.63;;
23123;SDS011;11731;48.592;8.858;2023-06-22T02:19:19;12.77;;;10.97;;
23123;SDS011;11731;48.592;8.858;2023-06-22T02:21:49;12.77;;;11.23;;
23123;SDS011;11731;48.592;8.858;2023-06-22T02:24:16;16.53;;;12.47;;
23123;SDS011;11731;48.592;8.858;2023-06-22T02:26:43;17.03;;;11.80;;
23123;SDS011;11731;48.592;8.858;2023-06-22T02:29:10;14.67;;;11.67;;
23123;SDS011;11731;48.592;8.858;2023-06-22T02:31:38;15.17;;;11.63;;
23123;SDS011;11731;48.592;8.858;2023-06-22T02:34:04;14.33;;;10.30;;
23123;SDS011;11731;48.592;8.858;2023-06-22T02:36:33;18.20;;;12.93;;
23123;SDS011;11731;48.592;8.858;2023-06-22T02:39:00;15.47;;;11.73;;
23123;SDS011;11731;48.592;8.858;2023-06-22T02:41:28;12.47;;;10.63;;
23123;SDS011;11731;48.592;8.858;2023-06-22T02:43:55;14.77;;;11.23;;
23123;SDS011;11731;48.592;8.858;2023-06-22T02:46:22;18.70;;;10.53;;
23123;SDS011;11731;48.592;8.858;2023-06-22T02:48:49;17.40;;;11.30;;
23123;SDS011;11731;48.592;8.858;2023-06-22T02:51:16;12.53;;;10.80;;
23123;SDS011;11731;48.592;8.858;2023-06-22T02:53:44;16.27;;;12.13;;
23123;SDS011;11731;48.592;8.858;2023-06-22T02:56:12;16.33;;;11.00;;
23123;SDS011;11731;48.592;8.858;2023-06-22T02:58:39;15.77;;;11.93;;
23123;SDS011;11731;48.592;8.858;2023-06-22T03:01:06;15.00;;;11.77;;
23123;SDS011;11731;48.592;8.858;2023-06-22T03:03:32;15.57;;;12.50;;
23123;SDS011;11731;48.592;8.858;2023-06-22T03:06:00;17.37;;;12.50;;
23123;SDS011;11731;48.592;8.858;2023-06-22T03:08:27;15.67;;;10.90;;
23123;SDS011;11731;48.592;8.858;2023-06-22T03:10:55;17.27;;;11.33;;
23123;SDS011;11731;48.592;8.858;2023-06-22T03:13:22;21.60;;;11.93;;
23123;SDS011;11731;48.592;8.858;2023-06-22T03:15:50;15.80;;;10.73;;
23123;SDS011;11731;48.592;8.858;2023-06-22T03:18:17;12.63;;;10.43;;
23123;SDS011;11731;48.592;8.858;2023-06-22T03:20:44;14.57;;;11.27;;
23123;SDS011;11731;48.592;8.858;2023-06-22T03:23:14;16.57;;;11.73;;
23123;SDS011;11731;48.592;8.858;2023-06-22T03:25:41;17.67;;;11.90;;
23123;SDS011;11731;48.592;8.858;2023-06-22T03:28:11;18.23;;;11.83;;
23123;SDS011;11731;48.592;8.858;2023-06-22T03:30:37;18.83;;;12.67;;
23123;SDS011;11731;48.592;8.858;2023-06-22T03:33:04;14.13;;;11.30;;
23123;SDS011;11731;48.592;8.858;2023-06-22T03:35:31;17.30;;;11.20;;
23123;SDS011;11731;48.592;8.858;2023-06-22T03:37:58;15.10;;;10.70;;
23123;SDS011;11731;48.592;8.858;2023-06-22T03:40:25;16.47;;;11.73;;
23123;SDS011;11731;48.592;8.858;2023-06-22T03:42:53;15.60;;;12.20;;
23123;SDS011;11731;48.592;8.858;2023-06-22T03:45:21;16.87;;;11.37;;
23123;SDS011;11731;48.592;8.858;2023-06-22T03:47:48;13.83;;;11.43;;
23123;SDS011;11731;48.592;8.858;2023-06-22T03:50:15;17.33;;;11.97;;
23123;SDS011;11731;48.592;8.858;2023-06-22T03:52:42;13.80;;;11.53;;
23123;SDS011;11731;48.592;8.858;2023-06-22T03:55:09;14.47;;;10.70;;
23123;SDS011;11731;48.592;8.858;2023-06-22T03:57:36;16.27;;;11.53;;
23123;SDS011;11731;48.592;8.858;2023-06-22T04:00:03;15.20;;;10.43;;
23123;SDS011;11731;48.592;8.858;2023-06-22T04:02:33;17.30;;;11.70;;
23123;SDS011;11731;48.592;8.858;2023-06-22T04:05:00;16.23;;;11.23;;
23123;SDS011;11731;48.592;8.858;2023-06-22T04:07:27;17.03;;;13.20;;
23123;SDS011;11731;48.592;8.858;2023-06-22T04:09:54;16.80;;;11.30;;
23123;SDS011;11731;48.592;8.858;2023-06-22T04:12:21;14.63;;;10.53;;
23123;SDS011;11731;48.592;8.858;2023-06-22T04:14:48;14.53;;;10.77;;
23123;SDS011;11731;48.592;8.858;2023-06-22T04:17:14;16.87;;;11.70;;
23123;SDS011;11731;48.592;8.858;2023-06-22T04:19:44;11.17;;;9.97;;
23123;SDS011;11731;48.592;8.858;2023-06-22T04:22:11;11.53;;;10.30;;
23123;SDS011;11731;48.592;8.858;2023-06-22T04:24:38;14.73;;;11.37;;
23123;SDS011;11731;48.592;8.858;2023-06-22T04:27:05;11.63;;;10.43;;
23123;SDS011;11731;48.592;8.858;2023-06-22T04:29:32;13.60;;;10.70;;
23123;SDS011;11731;48.592;8.858;2023-06-22T04:31:59;14.63;;;10.47;;
23123;SDS011;11731;48.592;8.858;2023-06-22T04:34:28;16.53;;;10.07;;
23123;SDS011;11731;48.592;8.858;2023-06-22T04:36:57;14.93;;;10.43;;
23123;SDS011;11731;48.592;8.858;2023-06-22T04:39:24;14.80;;;10.87;;
23123;SDS011;11731;48.592;8.858;2023-06-22T04:41:52;16.43;;;10.67;;
23123;SDS011;11731;48.592;8.858;2023-06-22T04:44:25;12.60;;;9.47;;
23123;SDS011;11731;48.592;8.858;2023-06-22T04:46:52;13.23;;;10.67;;
23123;SDS011;11731;48.592;8.858;2023-06-22T04:49:24;13.60;;;10.10;;
23123;SDS011;11731;48.592;8.858;2023-06-22T04:51:59;14.17;;;10.57;;
23123;SDS011;11731;48.592;8.858;2023-06-22T04:54:26;16.57;;;10.53;;
23123;SDS011;11731;48.592;8.858;2023-06-22T04:56:53;17.13;;;10.40;;
23123;SDS011;11731;48.592;8.858;2023-06-22T04:59:22;13.30;;;10.33;;
23123;SDS011;11731;48.592;8.858;2023-06-22T05:01:54;15.67;;;10.20;;
23123;SDS011;11731;48.592;8.858;2023-06-22T05:04:22;12.03;;;9.53;;
23123;SDS011;11731;48.592;8.858;2023-06-22T05:06:49;16.50;;;9.60;;
23123;SDS011;11731;48.592;8.858;2023-06-22T05:09:18;17.77;;;10.73;;
23123;SDS011;11731;48.592;8.858;2023-06-22T05:11:45;15.10;;;9.50;;
23123;SDS011;11731;48.592;8.858;2023-06-22T05:14:13;14.33;;;9.67;;
23123;SDS011;11731;48.592;8.858;2023-06-22T05:16:40;10.50;;;9.30;;
23123;SDS011;11731;48.592;8.858;2023-06-22T05:19:08;17.87;;;9.70;;
23123;SDS011;11731;48.592;8.858;2023-06-22T05:21:36;12.43;;;9.47;;
23123;SDS011;11731;48.592;8.858;2023-06-22T05:24:03;15.13;;;9.60;;
23123;SDS011;11731;48.592;8.858;2023-06-22T05:26:33;13.00;;;9.53;;
23123;SDS011;11731;48.592;8.858;2023-06-22T05:29:01;11.87;;;9.67;;
23123;SDS011;11731;48.592;8.858;2023-06-22T05:31:29;12.37;;;10.03;;
23123;SDS011;11731;48.592;8.858;2023-06-22T05:33:56;13.57;;;9.50;;
23123;SDS011;11731;48.592;8.858;2023-06-22T05:36:23;15.43;;;9.37;;
23123;SDS011;11731;48.592;8.858;2023-06-22T05:38:50;10.97;;;9.10;;
23123;SDS011;11731;48.592;8.858;2023-06-22T05:41:18;12.90;;;9.30;;
23123;SDS011;11731;48.592;8.858;2023-06-22T05:43:46;9.93;;;7.83;;
23123;SDS011;11731;48.592;8.858;2023-06-22T05:46:13;12.40;;;9.93;;
23123;SDS011;11731;48.592;8.858;2023-06-22T05:48:40;11.77;;;8.50;;
23123;SDS011;11731;48.592;8.858;2023-06-22T05:51:10;12.57;;;8.87;;
23123;SDS011;11731;48.592;8.858;2023-06-22T05:53:37;10.40;;;8.77;;
23123;SDS011;11731;48.592;8.858;2023-06-22T05:56:04;10.30;;;8.07;;
23123;SDS011;11731;48.592;8.858;2023-06-22T05:58:30;9.87;;;8.23;;
23123;SDS011;11731;48.592;8.858;2023-06-22T06:00:59;12.80;;;8.83;;
23123;SDS011;11731;48.592;8.858;2023-06-22T06:03:26;15.30;;;8.13;;
23123;SDS011;11731;48.592;8.858;2023-06-22T06:05:54;8.37;;;7.50;;
23123;SDS011;11731;48.592;8.858;2023-06-22T06:08:21;8.97;;;8.07;;
23123;SDS011;11731;48.592;8.858;2023-06-22T06:10:48;12.33;;;8.60;;
23123;SDS011;11731;48.592;8.858;2023-06-22T06:13:18;10.50;;;8.20;;
23123;SDS011;11731;48.592;8.858;2023-06-22T06:15:45;10.57;;;8.43;;
23123;SDS011;11731;48.592;8.858;2023-06-22T06:18:14;10.13;;;7.53;;
23123;SDS011;11731;48.592;8.858;2023-06-22T06:20:40;11.37;;;7.67;;
23123;SDS011;11731;48.592;8.858;2023-06-22T06:23:07;10.33;;;7.03;;
23123;SDS011;11731;48.592;8.858;2023-06-22T06:25:34;11.37;;;7.70;;
23123;SDS011;11731;48.592;8.858;2023-06-22T06:28:01;9.27;;;7.03;;
23123;SDS011;11731;48.592;8.858;2023-06-22T06:30:30;11.37;;;7.57;;
23123;SDS011;11731;48.592;8.858;2023-06-22T06:32:57;11.87;;;7.70;;
23123;SDS011;11731;48.592;8.858;2023-06-22T06:35:25;7.77;;;6.97;;
23123;SDS011;11731;48.592;8.858;2023-06-22T06:37:52;10.13;;;6.63;;
23123;SDS011;11731;48.592;8.858;2023-06-22T06:40:22;10.37;;;7.03;;
23123;SDS011;11731;48.592;8.858;2023-06-22T06:42:49;10.40;;;7.40;;
23123;SDS011;11731;48.592;8.858;2023-06-22T06:45:17;9.40;;;7.30;;
23123;SDS011;11731;48.592;8.858;2023-06-22T06:47:47;7.37;;;6.63;;
23123;SDS011;11731;48.592;8.858;2023-06-22T06:50:14;9.23;;;6.97;;
23123;SDS011;11731;48.592;8.858;2023-06-22T06:52:43;10.03;;;7.03;;
23123;SDS011;11731;48.592;8.858;2023-06-22T06:55:10;10.00;;;6.73;;
23123;SDS011;11731;48.592;8.858;2023-06-22T06:57:40;8.43;;;6.73;;
23123;SDS011;11731;48.592;8.858;2023-06-22T07:00:09;13.87;;;7.53;;
23123;SDS011;11731;48.592;8.858;2023-06-22T07:02:39;11.53;;;7.20;;
23123;SDS011;11731;48.592;8.858;2023-06-22T07:05:06;7.73;;;6.73;;
23123;SDS011;11731;48.592;8.858;2023-06-22T07:07:33;10.80;;;6.47;;
23123;SDS011;11731;48.592;8.858;2023-06-22T07:10:02;11.00;;;6.33;;
23123;SDS011;11731;48.592;8.858;2023-06-22T07:12:30;11.00;;;7.00;;
23123;SDS011;11731;48.592;8.858;2023-06-22T07:15:00;9.57;;;6.33;;
23123;SDS011;11731;48.592;8.858;2023-06-22T07:17:28;10.90;;;6.57;;
23123;SDS011;11731;48.592;8.858;2023-06-22T07:19:55;8.77;;;6.13;;
23123;SDS011;11731;48.592;8.858;2023-06-22T07:22:22;11.20;;;5.43;;
23123;SDS011;11731;48.592;8.858;2023-06-22T07:24:49;9.77;;;5.67;;
23123;SDS011;11731;48.592;8.858;2023-06-22T07:27:18;9.57;;;4.40;;
23123;SDS011;11731;48.592;8.858;2023-06-22T07:29:46;13.30;;;5.43;;
23123;SDS011;11731;48.592;8.858;2023-06-22T07:32:13;8.07;;;5.50;;
23123;SDS011;11731;48.592;8.858;2023-06-22T07:34:43;7.60;;;4.97;;
23123;SDS011;11731;48.592;8.858;2023-06-22T07:37:10;9.57;;;5.43;;
23123;SDS011;11731;48.592;8.858;2023-06-22T07:39:37;5.93;;;4.40;;
23123;SDS011;11731;48.592;8.858;2023-06-22T07:42:04;7.33;;;4.87;;
23123;SDS011;11731;48.592;8.858;2023-06-22T07:44:35;5.63;;;4.63;;
23123;SDS011;11731;48.592;8.858;2023-06-22T07:47:03;10.17;;;5.60;;
23123;SDS011;11731;48.592;8.858;2023-06-22T07:49:32;6.90;;;4.70;;
23123;SDS011;11731;48.592;8.858;2023-06-22T07:51:59;8.40;;;5.50;;
23123;SDS011;11731;48.592;8.858;2023-06-22T07:54:27;11.17;;;5.73;;
23123;SDS011;11731;48.592;8.858;2023-06-22T07:56:54;8.10;;;5.27;;
23123;SDS011;11731;48.592;8.858;2023-06-22T07:59:27;8.60;;;5.70;;
23123;SDS011;11731;48.592;8.858;2023-06-22T08:02:00;8.93;;;5.17;;
23123;SDS011;11731;48.592;8.858;2023-06-22T08:04:31;9.13;;;5.53;;
23123;SDS011;11731;48.592;8.858;2023-06-22T08:06:59;8.93;;;5.53;;
23123;SDS011;11731;48.592;8.858;2023-06-22T08:09:33;6.07;;;5.03;;
23123;SDS011;11731;48.592;8.858;2023-06-22T08:12:00;10.63;;;5.53;;
23123;SDS011;11731;48.592;8.858;2023-06-22T08:14:29;7.83;;;5.03;;
23123;SDS011;11731;48.592;8.858;2023-06-22T08:20:00;10.10;;;5.57;;
23123;SDS011;11731;48.592;8.858;2023-06-22T08:22:30;11.50;;;5.70;;
23123;SDS011;11731;48.592;8.858;2023-06-22T08:24:58;7.93;;;5.33;;
23123;SDS011;11731;48.592;8.858;2023-06-22T08:27:25;11.73;;;5.63;;
23123;SDS011;11731;48.592;8.858;2023-06-22T08:29:55;9.23;;;4.83;;
23123;SDS011;11731;48.592;8.858;2023-06-22T08:39:24;7.73;;;5.73;;
23123;SDS011;11731;48.592;8.858;2023-06-22T08:42:15;8.70;;;5.80;;
23123;SDS011;11731;48.592;8.858;2023-06-22T08:44:44;12.47;;;5.57;;
23123;SDS011;11731;48.592;8.858;2023-06-22T08:47:16;7.10;;;5.40;;
23123;SDS011;11731;48.592;8.858;2023-06-22T08:49:53;7.97;;;5.07;;
23123;SDS011;11731;48.592;8.858;2023-06-22T08:52:22;9.07;;;5.93;;
23123;SDS011;11731;48.592;8.858;2023-06-22T08:55:01;10.03;;;6.17;;
23123;SDS011;11731;48.592;8.858;2023-06-22T08:57:33;11.03;;;5.60;;
23123;SDS011;11731;48.592;8.858;2023-06-22T09:00:03;9.63;;;5.40;;
23123;SDS011;11731;48.592;8.858;2023-06-22T09:02:32;10.77;;;5.30;;
23123;SDS011;11731;48.592;8.858;2023-06-22T09:05:05;10.67;;;5.57;;
23123;SDS011;11731;48.592;8.858;2023-06-22T09:07:33;13.43;;;6.10;;
23123;SDS011;11731;48.592;8.858;2023-06-22T09:10:04;10.37;;;5.33;;
23123;SDS011;11731;48.592;8.858;2023-06-22T09:12:43;11.37;;;5.90;;
23123;SDS011;11731;48.592;8.858;2023-06-22T09:16:12;9.00;;;5.90;;
23123;SDS011;11731;48.592;8.858;2023-06-22T09:20:12;11.87;;;6.03;;
23123;SDS011;11731;48.592;8.858;2023-06-22T09:21:31;8.70;;;5.07;;
23123;SDS011;11731;48.592;8.858;2023-06-22T09:26:28;7.27;;;5.33;;
23123;SDS011;11731;48.592;8.858;2023-06-22T09:28:55;10.47;;;5.87;;
23123;SDS011;11731;48.592;8.858;2023-06-22T09:31:22;10.07;;;5.77;;
23123;SDS011;11731;48.592;8.858;2023-06-22T09:33:50;10.50;;;5.50;;
23123;SDS011;11731;48.592;8.858;2023-06-22T09:36:18;9.17;;;5.60;;
23123;SDS011;11731;48.592;8.858;2023-06-22T09:38:44;9.90;;;5.87;;
23123;SDS011;11731;48.592;8.858;2023-06-22T09:41:11;8.73;;;5.37;;
23123;SDS011;11731;48.592;8.858;2023-06-22T09:43:39;10.97;;;5.93;;
23123;SDS011;11731;48.592;8.858;2023-06-22T09:46:06;12.80;;;4.93;;
23123;SDS011;11731;48.592;8.858;2023-06-22T09:48:34;10.57;;;6.00;;
23123;SDS011;11731;48.592;8.858;2023-06-22T09:51:01;9.67;;;5.53;;
23123;SDS011;11731;48.592;8.858;2023-06-22T09:53:28;10.50;;;5.80;;
23123;SDS011;11731;48.592;8.858;2023-06-22T09:56:01;10.47;;;5.50;;
23123;SDS011;11731;48.592;8.858;2023-06-22T10:02:25;9.10;;;5.20;;
23123;SDS011;11731;48.592;8.858;2023-06-22T10:04:52;15.23;;;5.97;;
23123;SDS011;11731;48.592;8.858;2023-06-22T10:07:19;12.97;;;6.20;;
23123;SDS011;11731;48.592;8.858;2023-06-22T10:09:46;9.10;;;5.60;;
23123;SDS011;11731;48.592;8.858;2023-06-22T10:12:13;7.70;;;5.13;;
23123;SDS011;11731;48.592;8.858;2023-06-22T10:14:40;13.70;;;5.90;;
23123;SDS011;11731;48.592;8.858;2023-06-22T10:17:09;10.73;;;6.33;;
23123;SDS011;11731;48.592;8.858;2023-06-22T10:19:37;11.10;;;6.27;;
23123;SDS011;11731;48.592;8.858;2023-06-22T10:22:06;9.20;;;5.87;;
23123;SDS011;11731;48.592;8.858;2023-06-22T10:24:33;10.63;;;5.32;;
23123;SDS011;11731;48.592;8.858;2023-06-22T10:27:00;10.80;;;5.57;;
23123;SDS011;11731;48.592;8.858;2023-06-22T10:29:28;10.47;;;5.67;;
23123;SDS011;11731;48.592;8.858;2023-06-22T10:32:00;11.07;;;6.00;;
23123;SDS011;11731;48.592;8.858;2023-06-22T10:34:28;13.55;;;6.32;;
23123;SDS011;11731;48.592;8.858;2023-06-22T10:37:13;10.35;;;5.70;;
23123;SDS011;11731;48.592;8.858;2023-06-22T10:39:43;12.98;;;5.65;;
23123;SDS011;11731;48.592;8.858;2023-06-22T10:42:27;8.43;;;5.18;;
23123;SDS011;11731;48.592;8.858;2023-06-22T10:44:56;10.05;;;5.50;;
23123;SDS011;11731;48.592;8.858;2023-06-22T10:47:37;12.63;;;5.30;;
23123;SDS011;11731;48.592;8.858;2023-06-22T10:50:04;10.63;;;6.15;;
23123;SDS011;11731;48.592;8.858;2023-06-22T10:56:27;11.27;;;5.55;;
23123;SDS011;11731;48.592;8.858;2023-06-22T10:59:32;7.68;;;5.57;;
23123;SDS011;11731;48.592;8.858;2023-06-22T11:02:03;8.20;;;5.43;;
23123;SDS011;11731;48.592;8.858;2023-06-22T11:04:30;10.43;;;5.70;;
23123;SDS011;11731;48.592;8.858;2023-06-22T11:06:57;10.52;;;5.82;;
23123;SDS011;11731;48.592;8.858;2023-06-22T11:09:26;8.57;;;5.47;;
23123;SDS011;11731;48.592;8.858;2023-06-22T11:12:05;9.52;;;5.25;;
23123;SDS011;11731;48.592;8.858;2023-06-22T11:14:32;8.95;;;5.25;;
23123;SDS011;11731;48.592;8.858;2023-06-22T11:17:01;7.15;;;5.18;;
23123;SDS011;11731;48.592;8.858;2023-06-22T11:20:06;8.30;;;5.60;;
23123;SDS011;11731;48.592;8.858;2023-06-22T11:22:36;11.67;;;5.90;;
23123;SDS011;11731;48.592;8.858;2023-06-22T11:25:04;7.55;;;5.03;;
23123;SDS011;11731;48.592;8.858;2023-06-22T11:27:34;9.63;;;5.95;;
23123;SDS011;11731;48.592;8.858;2023-06-22T11:30:01;13.90;;;5.93;;
23123;SDS011;11731;48.592;8.858;2023-06-22T11:35:41;10.85;;;5.50;;
23123;SDS011;11731;48.592;8.858;2023-06-22T11:38:27;14.70;;;5.90;;
23123;SDS011;11731;48.592;8.858;2023-06-22T11:44:28;14.25;;;6.38;;
23123;SDS011;11731;48.592;8.858;2023-06-22T11:46:55;9.30;;;6.75;;
23123;SDS011;11731;48.592;8.858;2023-06-22T11:49:21;10.80;;;6.17;;
23123;SDS011;11731;48.592;8.858;2023-06-22T11:51:49;11.77;;;5.53;;
23123;SDS011;11731;48.592;8.858;2023-06-22T11:54:15;9.57;;;5.60;;
23123;SDS011;11731;48.592;8.858;2023-06-22T11:56:44;10.73;;;5.77;;
23123;SDS011;11731;48.592;8.858;2023-06-22T11:59:11;13.33;;;6.10;;
23123;SDS011;11731;48.592;8.858;2023-06-22T12:01:39;11.27;;;6.50;;
23123;SDS011;11731;48.592;8.858;2023-06-22T12:04:06;10.00;;;5.88;;
23123;SDS011;11731;48.592;8.858;2023-06-22T12:06:37;8.00;;;5.47;;
23123;SDS011;11731;48.592;8.858;2023-06-22T12:09:07;9.63;;;5.93;;
23123;SDS011;11731;48.592;8.858;2023-06-22T12:11:34;10.48;;;5.85;;
23123;SDS011;11731;48.592;8.858;2023-06-22T12:14:01;8.53;;;6.13;;
23123;SDS011;11731;48.592;8.858;2023-06-22T12:16:28;8.33;;;5.63;;
23123;SDS011;11731;48.592;8.858;2023-06-22T12:18:56;10.47;;;6.07;;
23123;SDS011;11731;48.592;8.858;2023-06-22T12:21:26;10.97;;;5.70;;
23123;SDS011;11731;48.592;8.858;2023-06-22T12:23:54;11.10;;;5.70;;
23123;SDS011;11731;48.592;8.858;2023-06-22T12:26:21;10.70;;;5.67;;
23123;SDS011;11731;48.592;8.858;2023-06-22T12:28:53;11.80;;;5.50;;
23123;SDS011;11731;48.592;8.858;2023-06-22T12:31:20;13.40;;;6.03;;
23123;SDS011;11731;48.592;8.858;2023-06-22T12:33:47;7.32;;;5.50;;
23123;SDS011;11731;48.592;8.858;2023-06-22T12:36:16;6.32;;;4.97;;
23123;SDS011;11731;48.592;8.858;2023-06-22T12:38:43;10.63;;;5.95;;
23123;SDS011;11731;48.592;8.858;2023-06-22T12:41:10;7.25;;;5.38;;
23123;SDS011;11731;48.592;8.858;2023-06-22T12:43:36;9.43;;;5.37;;
23123;SDS011;11731;48.592;8.858;2023-06-22T12:46:03;9.20;;;5.55;;
23123;SDS011;11731;48.592;8.858;2023-06-22T12:48:30;11.60;;;6.03;;
23123;SDS011;11731;48.592;8.858;2023-06-22T12:50:57;10.00;;;5.47;;
23123;SDS011;11731;48.592;8.858;2023-06-22T12:53:25;10.57;;;5.45;;
23123;SDS011;11731;48.592;8.858;2023-06-22T12:55:52;10.33;;;4.93;;
23123;SDS011;11731;48.592;8.858;2023-06-22T12:58:19;8.70;;;5.68;;
23123;SDS011;11731;48.592;8.858;2023-06-22T13:00:46;9.70;;;5.90;;
23123;SDS011;11731;48.592;8.858;2023-06-22T13:03:12;12.15;;;5.70;;
23123;SDS011;11731;48.592;8.858;2023-06-22T13:05:39;9.50;;;5.63;;
23123;SDS011;11731;48.592;8.858;2023-06-22T13:08:06;11.63;;;5.93;;
23123;SDS011;11731;48.592;8.858;2023-06-22T13:10:35;9.23;;;5.63;;
23123;SDS011;11731;48.592;8.858;2023-06-22T13:13:02;11.67;;;5.07;;
23123;SDS011;11731;48.592;8.858;2023-06-22T13:15:28;12.13;;;6.20;;
23123;SDS011;11731;48.592;8.858;2023-06-22T13:17:55;16.93;;;6.33;;
23123;SDS011;11731;48.592;8.858;2023-06-22T13:20:22;11.93;;;6.22;;
23123;SDS011;11731;48.592;8.858;2023-06-22T13:22:49;9.80;;;6.40;;
23123;SDS011;11731;48.592;8.858;2023-06-22T13:25:16;9.68;;;6.28;;
23123;SDS011;11731;48.592;8.858;2023-06-22T13:27:46;10.35;;;5.72;;
23123;SDS011;11731;48.592;8.858;2023-06-22T13:30:13;12.18;;;6.07;;
23123;SDS011;11731;48.592;8.858;2023-06-22T13:32:40;14.48;;;5.90;;
23123;SDS011;11731;48.592;8.858;2023-06-22T13:35:08;13.18;;;6.45;;
23123;SDS011;11731;48.592;8.858;2023-06-22T13:37:35;9.85;;;6.07;;
23123;SDS011;11731;48.592;8.858;2023-06-22T13:40:02;8.68;;;5.60;;
23123;SDS011;11731;48.592;8.858;2023-06-22T13:42:30;12.32;;;6.38;;
23123;SDS011;11731;48.592;8.858;2023-06-22T13:44:58;9.03;;;6.23;;
23123;SDS011;11731;48.592;8.858;2023-06-22T13:47:25;10.63;;;6.93;;
23123;SDS011;11731;48.592;8.858;2023-06-22T13:49:52;11.70;;;6.70;;
23123;SDS011;11731;48.592;8.858;2023-06-22T13:52:20;9.85;;;6.38;;
23123;SDS011;11731;48.592;8.858;2023-06-22T13:54:47;9.40;;;6.07;;
23123;SDS011;11731;48.592;8.858;2023-06-22T13:57:14;13.37;;;6.93;;
23123;SDS011;11731;48.592;8.858;2023-06-22T13:59:40;14.70;;;7.10;;
23123;SDS011;11731;48.592;8.858;2023-06-22T14:02:09;12.50;;;6.50;;
23123;SDS011;11731;48.592;8.858;2023-06-22T14:04:35;9.45;;;4.63;;
23123;SDS011;11731;48.592;8.858;2023-06-22T14:07:02;10.15;;;4.22;;
23123;SDS011;11731;48.592;8.858;2023-06-22T14:09:29;10.65;;;4.05;;
23123;SDS011;11731;48.592;8.858;2023-06-22T14:11:56;11.33;;;4.40;;
23123;SDS011;11731;48.592;8.858;2023-06-22T14:14:23;12.87;;;4.23;;
23123;SDS011;11731;48.592;8.858;2023-06-22T14:16:51;10.67;;;4.40;;
23123;SDS011;11731;48.592;8.858;2023-06-22T14:19:20;17.10;;;4.97;;
23123;SDS011;11731;48.592;8.858;2023-06-22T14:21:46;11.73;;;3.23;;
23123;SDS011;11731;48.592;8.858;2023-06-22T14:24:13;10.50;;;3.60;;
23123;SDS011;11731;48.592;8.858;2023-06-22T14:26:40;8.87;;;4.00;;
23123;SDS011;11731;48.592;8.858;2023-06-22T14:29:07;12.90;;;4.20;;
23123;SDS011;11731;48.592;8.858;2023-06-22T14:31:34;10.63;;;3.63;;
23123;SDS011;11731;48.592;8.858;2023-06-22T14:34:01;9.87;;;3.57;;
23123;SDS011;11731;48.592;8.858;2023-06-22T14:36:30;8.53;;;3.37;;
23123;SDS011;11731;48.592;8.858;2023-06-22T14:38:56;10.83;;;3.70;;
23123;SDS011;11731;48.592;8.858;2023-06-22T14:41:23;8.43;;;4.00;;
23123;SDS011;11731;48.592;8.858;2023-06-22T14:43:50;9.73;;;3.47;;
23123;SDS011;11731;48.592;8.858;2023-06-22T14:46:17;14.43;;;4.13;;
23123;SDS011;11731;48.592;8.858;2023-06-22T14:48:45;10.73;;;4.47;;
23123;SDS011;11731;48.592;8.858;2023-06-22T14:51:12;13.00;;;4.07;;
23123;SDS011;11731;48.592;8.858;2023-06-22T14:53:40;9.57;;;3.73;;
23123;SDS011;11731;48.592;8.858;2023-06-22T14:56:07;13.13;;;3.80;;
23123;SDS011;11731;48.592;8.858;2023-06-22T14:58:34;6.70;;;3.77;;
23123;SDS011;11731;48.592;8.858;2023-06-22T15:01:01;10.17;;;4.07;;
23123;SDS011;11731;48.592;8.858;2023-06-22T15:03:29;10.17;;;3.73;;
23123;SDS011;11731;48.592;8.858;2023-06-22T15:05:57;12.20;;;3.77;;
23123;SDS011;11731;48.592;8.858;2023-06-22T15:08:24;13.13;;;4.00;;
23123;SDS011;11731;48.592;8.858;2023-06-22T15:10:53;11.67;;;4.00;;